Time;durP1;ratioP1;P1;durP2;ratioP2;P2;SDS_P1;SDS_P2;PMS_P1;PMS_P2;Temp;Humidity;BMP_temperature;BMP_pressure;BME280_temperature;BME280_humidity;BME280_pressure;Samples;Min_cycle;Max_cycle;Signal;HPM_P1;HPM_P2
2021/08/06 00:00:12;;;;;;;1.05;1.05;;;;;;;;;;4995794;28;20267;-84
2021/08/06 00:02:40;;;;;;;1.00;1.00;;;;;;;;;;4995573;28;20195;-84
2021/08/06 00:05:09;;;;;;;1.75;1.48;;;;;;;;;;4995725;28;20222;-84
2021/08/06 00:07:36;;;;;;;1.73;1.63;;;;;;;;;;4995405;28;20581;-83
2021/08/06 00:10:05;;;;;;;1.73;1.63;;;;;;;;;;4995310;28;20825;-84
2021/08/06 00:12:32;;;;;;;1.70;1.60;;;;;;;;;;4983334;28;20204;-84
2021/08/06 00:15:01;;;;;;;1.70;1.60;;;;;;;;;;4979957;28;20204;-84
2021/08/06 00:17:29;;;;;;;1.42;1.33;;;;;;;;;;4994681;28;20616;-84
2021/08/06 00:19:56;;;;;;;1.25;1.25;;;;;;;;;;4994930;28;20212;-83
2021/08/06 00:22:24;;;;;;;1.63;1.52;;;;;;;;;;4976121;28;20192;-83
2021/08/06 00:24:51;;;;;;;1.58;1.48;;;;;;;;;;4975339;28;20212;-83
2021/08/06 00:27:19;;;;;;;1.70;1.60;;;;;;;;;;4988117;28;20235;-84
2021/08/06 00:29:46;;;;;;;1.38;1.27;;;;;;;;;;5014260;28;20206;-83
2021/08/06 00:32:15;;;;;;;1.55;1.45;;;;;;;;;;5013900;28;20203;-83
2021/08/06 00:34:42;;;;;;;1.55;1.45;;;;;;;;;;5013912;28;20190;-83
2021/08/06 00:37:10;;;;;;;1.55;1.45;;;;;;;;;;5007019;28;20220;-84
2021/08/06 00:39:37;;;;;;;1.58;1.48;;;;;;;;;;4994671;28;20180;-84
2021/08/06 00:42:05;;;;;;;1.52;1.42;;;;;;;;;;4979831;28;20836;-83
2021/08/06 00:44:33;;;;;;;1.90;1.80;;;;;;;;;;4986977;28;20817;-84
2021/08/06 00:47:00;;;;;;;1.58;1.48;;;;;;;;;;5000106;28;20226;-83
2021/08/06 00:49:29;;;;;;;1.63;1.52;;;;;;;;;;5010536;28;20210;-84
2021/08/06 00:51:56;;;;;;;1.88;1.77;;;;;;;;;;5013922;28;20183;-83
2021/08/06 00:54:24;;;;;;;1.33;1.23;;;;;;;;;;4996967;28;20922;-84
2021/08/06 00:56:52;;;;;;;1.20;1.20;;;;;;;;;;4998941;28;20207;-84
2021/08/06 00:59:19;;;;;;;1.60;1.50;;;;;;;;;;5013819;28;20199;-84
2021/08/06 01:01:51;;;;;;;1.60;1.50;;;;;;;;;;5013686;28;20180;-84
2021/08/06 01:04:25;;;;;;;1.58;1.48;;;;;;;;;;5013819;28;20175;-84
2021/08/06 01:06:59;;;;;;;1.40;1.30;;;;;;;;;;5007514;28;20227;-83
2021/08/06 01:09:38;;;;;;;1.50;1.40;;;;;;;;;;4993262;28;20568;-84
2021/08/06 01:12:09;;;;;;;1.10;1.10;;;;;;;;;;4987978;28;20570;-84
2021/08/06 01:14:40;;;;;;;1.27;1.27;;;;;;;;;;4974108;28;20565;-84
2021/08/06 01:17:08;;;;;;;1.38;1.30;;;;;;;;;;4988335;28;20230;-84
2021/08/06 01:19:52;;;;;;;2.15;2.03;;;;;;;;;;4997529;28;20198;-84
2021/08/06 01:22:27;;;;;;;3.35;2.47;;;;;;;;;;4992327;28;20224;-86
2021/08/06 01:25:06;;;;;;;1.80;1.70;;;;;;;;;;4991623;28;20191;-84
2021/08/06 01:27:37;;;;;;;1.75;1.60;;;;;;;;;;4986571;28;20622;-84
2021/08/06 01:30:08;;;;;;;1.50;1.40;;;;;;;;;;4974452;28;20200;-85
2021/08/06 01:32:37;;;;;;;1.75;1.65;;;;;;;;;;4974342;28;20189;-84
2021/08/06 01:35:07;;;;;;;2.55;2.45;;;;;;;;;;4974444;28;20180;-86
2021/08/06 01:37:34;;;;;;;2.08;1.98;;;;;;;;;;4961384;28;20224;-85
2021/08/06 01:40:06;;;;;;;4.07;3.78;;;;;;;;;;4954546;28;20201;-87
2021/08/06 01:42:41;;;;;;;2.80;2.60;;;;;;;;;;4973947;28;20208;-86
2021/08/06 01:45:13;;;;;;;2.53;2.33;;;;;;;;;;4973354;28;20203;-86
2021/08/06 01:47:43;;;;;;;2.28;2.08;;;;;;;;;;4972699;28;20216;-86
2021/08/06 01:50:14;;;;;;;1.75;1.65;;;;;;;;;;4974034;28;20610;-86
2021/08/06 01:52:47;;;;;;;1.80;1.70;;;;;;;;;;4972970;28;20197;-86
2021/08/06 01:55:16;;;;;;;2.70;2.50;;;;;;;;;;4954625;29;20186;-85
2021/08/06 01:57:46;;;;;;;1.90;1.80;;;;;;;;;;4955324;29;20601;-84
2021/08/06 02:00:14;;;;;;;1.85;1.75;;;;;;;;;;4955418;29;20197;-85
2021/08/06 02:02:42;;;;;;;2.88;2.67;;;;;;;;;;4955185;29;20177;-85
2021/08/06 02:05:11;;;;;;;1.70;1.60;;;;;;;;;;4955379;29;20212;-86
2021/08/06 02:07:39;;;;;;;2.20;2.10;;;;;;;;;;4955048;29;20236;-85
2021/08/06 02:10:07;;;;;;;2.35;2.15;;;;;;;;;;4954402;29;20276;-84
2021/08/06 02:12:35;;;;;;;2.17;2.05;;;;;;;;;;4953129;29;20204;-85
2021/08/06 02:15:06;;;;;;;3.60;2.70;;;;;;;;;;4953647;29;20193;-85
2021/08/06 02:17:36;;;;;;;2.03;1.92;;;;;;;;;;4953932;29;20240;-84
2021/08/06 02:20:04;;;;;;;1.70;1.60;;;;;;;;;;4953640;29;20200;-83
2021/08/06 02:22:32;;;;;;;2.28;2.15;;;;;;;;;;4961918;28;20679;-85
2021/08/06 02:25:00;;;;;;;2.22;2.05;;;;;;;;;;4972752;28;20227;-85
2021/08/06 02:27:28;;;;;;;2.42;2.00;;;;;;;;;;4972908;28;20228;-85
2021/08/06 02:29:58;;;;;;;1.40;1.35;;;;;;;;;;4970612;28;20201;-85
2021/08/06 02:32:27;;;;;;;1.80;1.70;;;;;;;;;;4966613;28;20211;-84
2021/08/06 02:34:56;;;;;;;1.80;1.70;;;;;;;;;;4953676;29;20192;-84
2021/08/06 02:37:23;;;;;;;2.10;1.95;;;;;;;;;;4953723;29;20217;-85
2021/08/06 02:39:51;;;;;;;1.80;1.70;;;;;;;;;;4971822;28;20204;-85
2021/08/06 02:42:18;;;;;;;1.90;1.80;;;;;;;;;;4973000;28;20216;-85
2021/08/06 02:44:47;;;;;;;1.70;1.60;;;;;;;;;;4973170;28;20191;-86
2021/08/06 02:47:14;;;;;;;2.50;2.30;;;;;;;;;;4972793;28;20235;-85
2021/08/06 02:49:43;;;;;;;1.92;1.83;;;;;;;;;;4973146;28;20200;-85
2021/08/06 02:52:10;;;;;;;1.83;1.73;;;;;;;;;;4972467;28;20404;-84
2021/08/06 02:54:38;;;;;;;2.00;1.80;;;;;;;;;;4973009;28;20216;-84
2021/08/06 02:57:05;;;;;;;3.78;3.47;;;;;;;;;;4971996;28;20572;-85
2021/08/06 02:59:33;;;;;;;3.33;3.03;;;;;;;;;;4975115;28;20657;-84
2021/08/06 03:02:00;;;;;;;1.90;1.80;;;;;;;;;;4976425;28;20189;-85
2021/08/06 03:04:28;;;;;;;2.08;1.98;;;;;;;;;;4976042;28;20189;-84
2021/08/06 03:06:57;;;;;;;1.75;1.65;;;;;;;;;;4975374;28;20232;-84
2021/08/06 03:09:24;;;;;;;2.33;2.20;;;;;;;;;;4975674;28;20292;-84
2021/08/06 03:11:51;;;;;;;1.90;1.80;;;;;;;;;;4975776;28;20208;-84
2021/08/06 03:14:19;;;;;;;2.45;1.95;;;;;;;;;;4976250;28;20199;-84
2021/08/06 03:16:46;;;;;;;2.13;2.03;;;;;;;;;;4976041;28;20224;-85
2021/08/06 03:19:15;;;;;;;3.10;2.30;;;;;;;;;;4975841;28;20211;-84
2021/08/06 03:21:42;;;;;;;2.50;2.30;;;;;;;;;;4963848;28;20197;-84
2021/08/06 03:24:11;;;;;;;2.90;2.70;;;;;;;;;;4956747;29;20197;-85
2021/08/06 03:26:38;;;;;;;2.97;2.67;;;;;;;;;;4958455;29;20232;-85
2021/08/06 03:29:06;;;;;;;3.28;3.05;;;;;;;;;;4962789;28;20224;-85
2021/08/06 03:31:33;;;;;;;2.25;2.05;;;;;;;;;;4977111;28;20200;-85
2021/08/06 03:34:01;;;;;;;2.13;2.03;;;;;;;;;;4977071;28;20184;-85
2021/08/06 03:36:28;;;;;;;1.90;1.80;;;;;;;;;;4977138;28;20220;-83
2021/08/06 03:38:56;;;;;;;2.00;1.90;;;;;;;;;;4976745;28;20761;-84
2021/08/06 03:41:25;;;;;;;1.70;1.60;;;;;;;;;;4957629;28;20197;-84
2021/08/06 03:43:52;;;;;;;1.80;1.70;;;;;;;;;;4959015;28;20205;-86
2021/08/06 03:46:20;;;;;;;2.72;2.53;;;;;;;;;;4976455;28;20228;-84
2021/08/06 03:48:47;;;;;;;2.30;2.15;;;;;;;;;;4976847;28;20201;-85
2021/08/06 03:51:15;;;;;;;2.10;2.00;;;;;;;;;;4976152;28;20565;-85
2021/08/06 03:53:42;;;;;;;2.40;2.20;;;;;;;;;;4977315;28;20276;-85
2021/08/06 03:56:10;;;;;;;2.13;2.00;;;;;;;;;;4976820;28;20311;-85
2021/08/06 03:58:39;;;;;;;2.70;2.50;;;;;;;;;;4967541;28;20552;-84
2021/08/06 04:01:06;;;;;;;1.88;1.77;;;;;;;;;;4957250;29;20216;-84
2021/08/06 04:03:34;;;;;;;2.97;2.78;;;;;;;;;;4957096;29;20188;-85
2021/08/06 04:06:01;;;;;;;2.80;2.55;;;;;;;;;;4956632;29;20240;-85
2021/08/06 04:08:28;;;;;;;2.97;2.78;;;;;;;;;;4956115;29;20228;-85
2021/08/06 04:10:56;;;;;;;3.17;2.95;;;;;;;;;;4955074;28;20185;-85
2021/08/06 04:13:23;;;;;;;2.60;2.40;;;;;;;;;;4971835;28;20211;-85
2021/08/06 04:15:52;;;;;;;3.13;2.90;;;;;;;;;;4974612;28;20230;-85
2021/08/06 04:18:35;;;;;;;3.65;2.95;;;;;;;;;;4969741;28;20204;-85
2021/08/06 04:21:30;;;;;;;3.53;3.22;;;;;;;;;;4973175;28;20200;-85
2021/08/06 04:23:58;;;;;;;4.10;3.80;;;;;;;;;;4965538;28;20207;-86
2021/08/06 04:26:25;;;;;;;4.95;4.18;;;;;;;;;;4974152;28;20230;-85
2021/08/06 04:28:53;;;;;;;4.25;3.95;;;;;;;;;;4973831;28;20244;-85
2021/08/06 04:31:21;;;;;;;3.60;3.30;;;;;;;;;;4974202;28;20200;-85
2021/08/06 04:33:49;;;;;;;3.80;3.55;;;;;;;;;;4974066;28;20212;-85
2021/08/06 04:36:16;;;;;;;5.32;3.55;;;;;;;;;;4974279;28;20228;-85
2021/08/06 04:38:45;;;;;;;3.28;3.08;;;;;;;;;;4974329;28;20574;-85
2021/08/06 04:41:12;;;;;;;3.03;2.83;;;;;;;;;;4973991;28;20212;-85
2021/08/06 04:43:40;;;;;;;3.97;3.67;;;;;;;;;;4974485;28;20208;-85
2021/08/06 04:46:07;;;;;;;4.03;3.72;;;;;;;;;;4974615;28;20316;-85
2021/08/06 04:48:36;;;;;;;3.05;2.75;;;;;;;;;;4974524;28;20212;-85
2021/08/06 04:51:03;;;;;;;2.70;2.50;;;;;;;;;;4974249;28;20184;-85
2021/08/06 04:53:34;;;;;;;2.15;2.05;;;;;;;;;;4974207;28;20646;-85
2021/08/06 04:56:02;;;;;;;3.33;3.13;;;;;;;;;;4974172;28;20699;-85
2021/08/06 04:58:29;;;;;;;3.63;3.33;;;;;;;;;;4973840;28;20215;-85
2021/08/06 05:00:57;;;;;;;2.75;2.55;;;;;;;;;;4973840;28;20200;-84
2021/08/06 05:03:24;;;;;;;3.08;2.85;;;;;;;;;;4973907;28;20208;-85
2021/08/06 05:05:53;;;;;;;3.78;3.47;;;;;;;;;;4974040;28;20220;-85
2021/08/06 05:08:20;;;;;;;3.65;3.28;;;;;;;;;;4973980;28;20234;-85
2021/08/06 05:10:48;;;;;;;3.50;3.30;;;;;;;;;;4974157;28;20189;-85
2021/08/06 05:13:15;;;;;;;4.20;3.90;;;;;;;;;;4973810;28;20215;-87
2021/08/06 05:15:42;;;;;;;3.45;3.15;;;;;;;;;;4973375;28;20204;-86
2021/08/06 05:18:10;;;;;;;4.45;4.05;;;;;;;;;;4973715;28;20196;-86
2021/08/06 05:20:37;;;;;;;4.13;3.83;;;;;;;;;;4973238;28;20200;-86
2021/08/06 05:23:06;;;;;;;4.80;4.20;;;;;;;;;;4973750;28;20188;-86
2021/08/06 05:25:34;;;;;;;3.45;3.15;;;;;;;;;;4973622;28;20204;-85
2021/08/06 05:28:01;;;;;;;4.43;4.03;;;;;;;;;;4973558;28;20239;-86
2021/08/06 05:30:29;;;;;;;4.15;3.80;;;;;;;;;;4973664;28;20204;-86
2021/08/06 05:32:56;;;;;;;4.55;3.88;;;;;;;;;;4973955;28;20192;-87
2021/08/06 05:35:24;;;;;;;5.57;5.07;;;;;;;;;;4973642;28;20180;-86
2021/08/06 05:37:52;;;;;;;3.75;3.53;;;;;;;;;;4968208;28;20223;-86
2021/08/06 05:40:21;;;;;;;4.57;4.20;;;;;;;;;;4973482;28;20204;-86
2021/08/06 05:42:48;;;;;;;5.40;4.50;;;;;;;;;;4973853;28;20193;-86
2021/08/06 05:45:16;;;;;;;4.85;4.45;;;;;;;;;;4973802;28;20195;-85
2021/08/06 05:47:46;;;;;;;4.80;4.40;;;;;;;;;;4973108;28;20228;-86
2021/08/06 05:50:15;;;;;;;4.50;4.10;;;;;;;;;;4973680;28;20240;-86
2021/08/06 05:52:43;;;;;;;4.68;3.50;;;;;;;;;;4973806;28;20590;-86
2021/08/06 05:55:12;;;;;;;5.13;4.72;;;;;;;;;;4973611;28;20188;-87
2021/08/06 05:57:41;;;;;;;5.95;4.00;;;;;;;;;;4973206;28;20234;-86
2021/08/06 06:00:13;;;;;;;3.85;3.53;;;;;;;;;;4973650;28;20188;-86
2021/08/06 06:02:41;;;;;;;4.30;4.00;;;;;;;;;;4973594;28;20184;-86
2021/08/06 06:05:09;;;;;;;3.70;3.40;;;;;;;;;;4973502;28;20180;-85
2021/08/06 06:07:44;;;;;;;4.07;3.78;;;;;;;;;;4973340;28;20246;-84
2021/08/06 06:10:12;;;;;;;4.25;3.85;;;;;;;;;;4973228;28;20635;-85
2021/08/06 06:12:41;;;;;;;4.20;3.80;;;;;;;;;;4973452;28;20204;-85
2021/08/06 06:15:10;;;;;;;3.50;3.22;;;;;;;;;;4973132;28;20191;-85
2021/08/06 06:17:38;;;;;;;4.60;3.53;;;;;;;;;;4973129;28;20217;-86
2021/08/06 06:20:07;;;;;;;3.13;2.83;;;;;;;;;;4973585;28;20191;-85
2021/08/06 06:22:35;;;;;;;3.50;3.30;;;;;;;;;;4972719;28;20219;-86
2021/08/06 06:25:02;;;;;;;3.75;3.45;;;;;;;;;;4973138;28;20192;-86
2021/08/06 06:27:29;;;;;;;2.78;2.58;;;;;;;;;;4971350;28;20695;-85
2021/08/06 06:29:58;;;;;;;2.42;2.22;;;;;;;;;;4953759;29;20742;-88
2021/08/06 06:32:26;;;;;;;2.83;2.63;;;;;;;;;;4965503;28;20218;-84
2021/08/06 06:34:53;;;;;;;4.57;3.88;;;;;;;;;;4970402;28;20212;-85
2021/08/06 06:37:21;;;;;;;2.60;2.40;;;;;;;;;;4963522;28;20217;-86
2021/08/06 06:39:48;;;;;;;2.83;2.63;;;;;;;;;;4975987;28;20189;-84
2021/08/06 06:42:15;;;;;;;2.88;2.63;;;;;;;;;;4976237;28;20196;-85
2021/08/06 06:44:43;;;;;;;4.13;3.83;;;;;;;;;;4976374;28;20188;-85
2021/08/06 06:47:12;;;;;;;3.17;2.95;;;;;;;;;;4975912;28;20227;-85
2021/08/06 06:49:39;;;;;;;2.63;2.42;;;;;;;;;;4962532;28;20256;-86
2021/08/06 06:52:08;;;;;;;4.50;2.90;;;;;;;;;;4970980;28;20200;-85
2021/08/06 06:54:36;;;;;;;3.75;3.45;;;;;;;;;;4976612;28;20814;-86
2021/08/06 06:57:05;;;;;;;3.75;3.45;;;;;;;;;;4976271;28;20224;-85
2021/08/06 06:59:32;;;;;;;3.80;3.45;;;;;;;;;;4976533;28;20222;-85
2021/08/06 07:02:01;;;;;;;3.15;2.95;;;;;;;;;;4976089;28;20204;-84
2021/08/06 07:04:30;;;;;;;3.58;3.35;;;;;;;;;;4976339;28;20283;-84
2021/08/06 07:06:58;;;;;;;2.92;2.67;;;;;;;;;;4975919;28;20224;-85
2021/08/06 07:09:25;;;;;;;3.30;3.03;;;;;;;;;;4976086;28;20219;-86
2021/08/06 07:11:53;;;;;;;2.90;2.70;;;;;;;;;;4975738;28;20215;-88
2021/08/06 07:14:20;;;;;;;3.55;3.25;;;;;;;;;;4976280;28;20196;-83
2021/08/06 07:16:47;;;;;;;3.83;3.55;;;;;;;;;;4975787;28;20224;-83
2021/08/06 07:19:15;;;;;;;3.33;3.13;;;;;;;;;;4976178;28;20724;-84
2021/08/06 07:21:48;;;;;;;3.60;3.30;;;;;;;;;;4974471;28;20208;-84
2021/08/06 07:24:18;;;;;;;3.47;3.28;;;;;;;;;;4975815;28;20201;-84
2021/08/06 07:26:46;;;;;;;2.97;2.78;;;;;;;;;;4975206;28;20239;-84
2021/08/06 07:29:13;;;;;;;2.63;2.42;;;;;;;;;;5014574;28;20215;-84
2021/08/06 07:31:41;;;;;;;3.30;3.03;;;;;;;;;;5006675;28;20207;-84
2021/08/06 07:34:09;;;;;;;3.05;2.83;;;;;;;;;;5005892;28;20192;-85
2021/08/06 07:36:36;;;;;;;4.28;3.88;;;;;;;;;;4988272;28;20220;-85
2021/08/06 07:39:05;;;;;;;3.00;2.80;;;;;;;;;;4995168;28;20183;-84
2021/08/06 07:41:33;;;;;;;2.95;2.58;;;;;;;;;;4995518;28;20203;-84
2021/08/06 07:44:00;;;;;;;3.72;3.42;;;;;;;;;;5012209;28;20192;-84
2021/08/06 07:46:28;;;;;;;4.25;3.95;;;;;;;;;;4994789;28;20223;-84
2021/08/06 07:48:55;;;;;;;4.00;3.60;;;;;;;;;;4994699;28;20624;-85
2021/08/06 07:51:24;;;;;;;3.08;2.88;;;;;;;;;;4995205;28;20223;-85
2021/08/06 07:53:51;;;;;;;3.42;3.22;;;;;;;;;;4994272;28;20691;-89
2021/08/06 07:56:20;;;;;;;3.45;2.97;;;;;;;;;;4991424;28;20300;-85
2021/08/06 07:58:47;;;;;;;2.90;2.17;;;;;;;;;;4974134;28;20221;-86
2021/08/06 08:01:15;;;;;;;2.78;2.58;;;;;;;;;;4981597;28;20200;-86
2021/08/06 08:03:42;;;;;;;2.60;2.40;;;;;;;;;;4994165;28;20199;-86
2021/08/06 08:06:10;;;;;;;2.28;2.08;;;;;;;;;;5006425;28;20242;-86
2021/08/06 08:08:37;;;;;;;3.45;3.20;;;;;;;;;;4998216;28;20601;-87
2021/08/06 08:11:05;;;;;;;3.00;2.80;;;;;;;;;;4998867;28;20203;-87
2021/08/06 08:13:34;;;;;;;3.00;2.80;;;;;;;;;;5013573;28;20566;-87
2021/08/06 08:16:02;;;;;;;3.00;2.80;;;;;;;;;;5010942;28;20711;-86
2021/08/06 08:18:29;;;;;;;2.58;2.38;;;;;;;;;;4993488;28;20642;-86
2021/08/06 08:20:57;;;;;;;2.25;2.15;;;;;;;;;;4998357;28;20188;-86
2021/08/06 08:23:25;;;;;;;7.47;2.70;;;;;;;;;;5005883;28;20208;-88
2021/08/06 08:25:54;;;;;;;2.22;2.13;;;;;;;;;;4974584;28;20220;-87
2021/08/06 08:28:23;;;;;;;2.25;2.00;;;;;;;;;;4961106;28;20236;-87
2021/08/06 08:30:52;;;;;;;1.70;1.60;;;;;;;;;;4958483;28;20577;-86
2021/08/06 08:33:21;;;;;;;1.80;1.70;;;;;;;;;;4974640;28;20193;-87
2021/08/06 08:35:49;;;;;;;2.03;1.90;;;;;;;;;;4979395;28;20192;-87
2021/08/06 08:38:30;;;;;;;1.80;1.70;;;;;;;;;;4991616;28;20208;-87
2021/08/06 08:40:59;;;;;;;1.80;1.70;;;;;;;;;;4974294;28;20203;-87
2021/08/06 08:43:27;;;;;;;2.03;1.92;;;;;;;;;;4974113;28;20276;-87
2021/08/06 08:45:58;;;;;;;1.85;1.75;;;;;;;;;;4973592;28;20217;-88
2021/08/06 08:48:25;;;;;;;1.83;1.73;;;;;;;;;;4974120;28;20204;-88
2021/08/06 08:50:55;;;;;;;1.63;1.52;;;;;;;;;;4971878;28;20239;-88
2021/08/06 08:53:22;;;;;;;1.63;1.52;;;;;;;;;;4973409;28;20188;-87
2021/08/06 08:55:50;;;;;;;1.52;1.42;;;;;;;;;;4972569;28;20221;-87
2021/08/06 08:58:18;;;;;;;1.23;1.23;;;;;;;;;;4973807;28;20697;-86
2021/08/06 09:00:46;;;;;;;1.55;1.45;;;;;;;;;;4973959;28;20559;-88
2021/08/06 09:03:46;;;;;;;1.70;1.60;;;;;;;;;;4973948;28;20291;-87
2021/08/06 09:06:14;;;;;;;1.23;1.23;;;;;;;;;;4973943;28;20311;-86
2021/08/06 09:08:43;;;;;;;1.05;1.05;;;;;;;;;;4974287;28;20213;-86
2021/08/06 09:11:28;;;;;;;1.20;1.20;;;;;;;;;;4973454;28;20214;-87
2021/08/06 09:14:04;;;;;;;1.20;1.20;;;;;;;;;;4974033;28;20188;-87
2021/08/06 09:16:32;;;;;;;0.80;0.80;;;;;;;;;;4973860;28;20224;-87
2021/08/06 09:19:13;;;;;;;1.10;1.10;;;;;;;;;;4973940;28;20989;-87
2021/08/06 09:21:40;;;;;;;1.13;1.02;;;;;;;;;;4973371;28;20196;-87
2021/08/06 09:24:10;;;;;;;1.20;1.20;;;;;;;;;;4973482;28;20188;-87
2021/08/06 09:26:42;;;;;;;1.00;1.00;;;;;;;;;;4973303;28;20238;-87
2021/08/06 09:29:12;;;;;;;1.60;0.82;;;;;;;;;;4971436;28;20197;-86
2021/08/06 09:31:42;;;;;;;1.30;1.30;;;;;;;;;;4955405;28;20216;-86
2021/08/06 09:34:21;;;;;;;0.82;0.80;;;;;;;;;;4977177;28;20194;-86
2021/08/06 09:37:07;;;;;;;0.90;0.90;;;;;;;;;;4956587;28;20211;-87
2021/08/06 09:39:40;;;;;;;0.80;0.80;;;;;;;;;;4975349;28;20199;-88
2021/08/06 09:42:32;;;;;;;1.00;1.00;;;;;;;;;;4978736;28;20203;-88
2021/08/06 09:45:04;;;;;;;0.95;0.95;;;;;;;;;;4973985;28;20195;-88
2021/08/06 09:47:44;;;;;;;0.80;0.80;;;;;;;;;;4974231;28;20223;-92
2021/08/06 09:50:15;;;;;;;0.70;0.70;;;;;;;;;;4954534;29;20220;-86
2021/08/06 09:52:46;;;;;;;0.80;0.80;;;;;;;;;;4970573;28;20212;-86
2021/08/06 09:55:22;;;;;;;0.70;0.70;;;;;;;;;;4973785;28;20192;-87
2021/08/06 09:57:52;;;;;;;0.70;0.70;;;;;;;;;;4963578;28;20729;-88
2021/08/06 10:00:25;;;;;;;1.00;1.00;;;;;;;;;;4973457;28;20189;-87
2021/08/06 10:02:55;;;;;;;0.88;0.88;;;;;;;;;;4954313;29;20735;-87
2021/08/06 10:05:28;;;;;;;0.90;0.90;;;;;;;;;;4962196;28;20191;-87
2021/08/06 10:07:58;;;;;;;0.70;0.70;;;;;;;;;;4974599;28;20192;-88
2021/08/06 10:10:30;;;;;;;0.70;0.70;;;;;;;;;;4977149;28;20212;-87
2021/08/06 10:13:05;;;;;;;0.88;0.88;;;;;;;;;;4977567;28;20188;-89
2021/08/06 10:15:34;;;;;;;1.27;1.25;;;;;;;;;;4977146;28;20550;-89
2021/08/06 10:18:03;;;;;;;0.90;0.90;;;;;;;;;;4971453;28;20193;-89
2021/08/06 10:20:40;;;;;;;0.75;0.75;;;;;;;;;;4958233;28;20200;-90
2021/08/06 10:23:08;;;;;;;1.30;1.20;;;;;;;;;;4975243;28;20680;-87
2021/08/06 10:25:36;;;;;;;0.85;0.85;;;;;;;;;;4974634;28;20199;-87
2021/08/06 10:28:05;;;;;;;0.93;0.93;;;;;;;;;;4992488;28;20311;-87
2021/08/06 10:30:35;;;;;;;1.15;1.13;;;;;;;;;;4995010;28;20224;-86
2021/08/06 10:33:12;;;;;;;0.73;0.73;;;;;;;;;;4983149;28;20215;-89
2021/08/06 10:35:51;;;;;;;1.38;0.93;;;;;;;;;;4976704;28;20223;-88
2021/08/06 10:38:35;;;;;;;0.90;0.90;;;;;;;;;;4976624;28;20631;-88
2021/08/06 10:41:13;;;;;;;0.85;0.85;;;;;;;;;;4988253;28;20199;-88
2021/08/06 10:44:04;;;;;;;0.93;0.93;;;;;;;;;;4992329;28;20200;-86
2021/08/06 10:47:02;;;;;;;1.00;1.00;;;;;;;;;;4977937;28;20252;-88
2021/08/06 10:49:31;;;;;;;0.90;0.90;;;;;;;;;;4996151;28;20216;-87
2021/08/06 10:52:19;;;;;;;0.90;0.90;;;;;;;;;;4995658;28;20709;-87
2021/08/06 10:54:49;;;;;;;0.80;0.80;;;;;;;;;;4977871;28;20204;-86
2021/08/06 10:57:39;;;;;;;0.95;0.95;;;;;;;;;;4993016;28;20733;-89
2021/08/06 11:00:09;;;;;;;0.80;0.80;;;;;;;;;;5006877;28;20576;-87
2021/08/06 11:02:42;;;;;;;0.70;0.70;;;;;;;;;;5015326;28;20192;-87
2021/08/06 11:05:52;;;;;;;0.80;0.80;;;;;;;;;;5015171;28;20546;-87
2021/08/06 11:08:48;;;;;;;0.90;0.90;;;;;;;;;;5002531;28;20199;-87
2021/08/06 11:11:46;;;;;;;0.90;0.90;;;;;;;;;;5007696;28;20200;-89
2021/08/06 11:14:19;;;;;;;0.95;0.95;;;;;;;;;;4995402;28;20181;-88
2021/08/06 11:17:07;;;;;;;0.70;0.70;;;;;;;;;;4995413;28;20306;-88
2021/08/06 11:19:37;;;;;;;1.00;1.00;;;;;;;;;;4994847;28;20214;-88
2021/08/06 11:22:08;;;;;;;0.90;0.90;;;;;;;;;;5009076;28;20207;-89
2021/08/06 11:24:42;;;;;;;0.70;0.70;;;;;;;;;;4985855;28;20195;-87
2021/08/06 11:27:11;;;;;;;0.75;0.75;;;;;;;;;;4990635;28;20753;-87
2021/08/06 11:29:42;;;;;;;0.70;0.70;;;;;;;;;;4975683;28;20582;-88
2021/08/06 11:32:13;;;;;;;0.75;0.75;;;;;;;;;;4975584;28;20212;-89
2021/08/06 11:34:54;;;;;;;1.02;0.70;;;;;;;;;;4975463;28;20533;-88
2021/08/06 11:37:25;;;;;;;0.80;0.80;;;;;;;;;;4975566;28;20212;-88
2021/08/06 11:40:11;;;;;;;0.80;0.80;;;;;;;;;;4970555;28;20189;-88
2021/08/06 11:42:41;;;;;;;0.82;0.82;;;;;;;;;;4974474;28;20887;-90
2021/08/06 11:45:11;;;;;;;0.90;0.90;;;;;;;;;;4975596;28;20203;-93
2021/08/06 11:47:45;;;;;;;0.70;0.70;;;;;;;;;;4975717;28;20220;-87
2021/08/06 11:50:16;;;;;;;0.82;0.82;;;;;;;;;;4975761;28;20220;-89
2021/08/06 11:52:46;;;;;;;0.70;0.70;;;;;;;;;;4975422;28;20212;-86
2021/08/06 11:55:16;;;;;;;0.80;0.80;;;;;;;;;;4975396;28;20219;-86
2021/08/06 11:57:52;;;;;;;0.90;0.90;;;;;;;;;;4973356;28;20220;-87
2021/08/06 12:00:28;;;;;;;0.75;0.75;;;;;;;;;;4975750;28;20184;-87
2021/08/06 12:03:11;;;;;;;0.80;0.80;;;;;;;;;;4958317;28;20207;-86
2021/08/06 12:05:42;;;;;;;0.70;0.70;;;;;;;;;;4975084;28;20185;-88
2021/08/06 12:08:25;;;;;;;0.65;0.65;;;;;;;;;;4975349;28;20256;-87
2021/08/06 12:10:56;;;;;;;1.27;1.13;;;;;;;;;;4975086;28;20203;-90
2021/08/06 12:13:26;;;;;;;0.80;0.80;;;;;;;;;;4975238;28;20213;-88
2021/08/06 12:16:07;;;;;;;0.57;0.57;;;;;;;;;;4975108;28;20236;-88
2021/08/06 12:18:35;;;;;;;1.00;1.00;;;;;;;;;;4974919;28;20669;-88
2021/08/06 12:21:08;;;;;;;0.85;0.70;;;;;;;;;;4974810;28;20192;-88
2021/08/06 12:23:39;;;;;;;0.73;0.73;;;;;;;;;;4974690;28;20666;-87
2021/08/06 12:26:15;;;;;;;0.65;0.65;;;;;;;;;;4973839;28;20224;-87
2021/08/06 12:28:46;;;;;;;1.88;1.42;;;;;;;;;;5006504;28;20593;-87
2021/08/06 12:31:18;;;;;;;0.73;0.73;;;;;;;;;;5010814;28;20207;-87
2021/08/06 12:33:51;;;;;;;0.63;0.63;;;;;;;;;;5013408;28;20205;-87
2021/08/06 12:36:22;;;;;;;0.70;0.70;;;;;;;;;;5013820;28;20215;-88
2021/08/06 12:38:53;;;;;;;0.57;0.57;;;;;;;;;;5013955;28;20222;-88
2021/08/06 12:41:31;;;;;;;0.88;0.88;;;;;;;;;;5013175;28;20199;-89
2021/08/06 12:44:27;;;;;;;0.70;0.70;;;;;;;;;;5013766;28;20187;-91
2021/08/06 12:47:11;;;;;;;0.75;0.75;;;;;;;;;;4996024;28;20227;-88
2021/08/06 12:49:41;;;;;;;0.70;0.70;;;;;;;;;;5013722;28;20191;-87
2021/08/06 12:52:23;;;;;;;0.70;0.70;;;;;;;;;;5114584;27;20315;-87
2021/08/06 12:55:17;;;;;;;0.73;0.73;;;;;;;;;;5090030;28;20210;-87
2021/08/06 12:57:50;;;;;;;0.73;0.73;;;;;;;;;;5051458;28;20217;-87
2021/08/06 13:00:24;;;;;;;0.82;0.82;;;;;;;;;;5069838;28;20187;-89
2021/08/06 13:03:06;;;;;;;0.70;0.70;;;;;;;;;;5069844;28;20242;-89
2021/08/06 13:06:00;;;;;;;0.80;0.80;;;;;;;;;;5069223;28;20219;-87
2021/08/06 13:08:31;;;;;;;0.88;0.88;;;;;;;;;;5069699;28;20191;-87
2021/08/06 13:11:10;;;;;;;0.70;0.70;;;;;;;;;;5074408;28;20197;-86
2021/08/06 13:13:41;;;;;;;1.00;0.95;;;;;;;;;;5089695;28;20722;-85
2021/08/06 13:16:13;;;;;;;1.10;0.75;;;;;;;;;;5089564;28;20216;-85
2021/08/06 13:18:41;;;;;;;0.70;0.70;;;;;;;;;;5089524;28;20189;-86
2021/08/06 13:21:11;;;;;;;0.65;0.65;;;;;;;;;;5082388;28;20201;-88
2021/08/06 13:23:41;;;;;;;0.70;0.70;;;;;;;;;;5068583;28;20232;-86
2021/08/06 13:26:11;;;;;;;0.70;0.70;;;;;;;;;;5068873;28;20225;-86
2021/08/06 13:28:40;;;;;;;0.60;0.60;;;;;;;;;;5068850;28;20636;-86
2021/08/06 13:31:09;;;;;;;0.60;0.60;;;;;;;;;;5074966;28;20208;-88
2021/08/06 13:33:42;;;;;;;0.70;0.70;;;;;;;;;;5088964;28;20643;-87
2021/08/06 13:36:10;;;;;;;0.70;0.70;;;;;;;;;;5089016;28;20231;-87
2021/08/06 13:38:37;;;;;;;0.60;0.60;;;;;;;;;;5089154;28;20185;-88
2021/08/06 13:41:10;;;;;;;0.70;0.70;;;;;;;;;;5088647;28;20667;-88
2021/08/06 13:43:37;;;;;;;0.63;0.63;;;;;;;;;;5088594;28;20232;-88
2021/08/06 13:46:05;;;;;;;0.80;0.80;;;;;;;;;;5088916;28;20229;-88
2021/08/06 13:48:32;;;;;;;0.70;0.70;;;;;;;;;;5088469;28;20207;-88
2021/08/06 13:51:00;;;;;;;0.90;0.90;;;;;;;;;;5088351;28;20263;-85
2021/08/06 13:53:29;;;;;;;0.90;0.90;;;;;;;;;;5088959;28;20205;-86
2021/08/06 13:56:36;;;;;;;0.82;0.82;;;;;;;;;;5090569;28;20227;-89
2021/08/06 13:59:10;;;;;;;0.73;0.73;;;;;;;;;;5087878;28;20214;-86
2021/08/06 14:01:39;;;;;;;0.68;0.68;;;;;;;;;;5075383;28;20280;-88
2021/08/06 14:04:07;;;;;;;1.08;1.00;;;;;;;;;;5054830;28;20189;-88
2021/08/06 14:06:36;;;;;;;0.68;0.68;;;;;;;;;;5055137;28;20249;-86
2021/08/06 14:09:05;;;;;;;0.85;0.85;;;;;;;;;;5054825;28;20653;-87
2021/08/06 14:11:33;;;;;;;1.00;0.93;;;;;;;;;;5064271;28;20247;-86
2021/08/06 14:14:02;;;;;;;0.70;0.70;;;;;;;;;;5074644;28;20191;-86
2021/08/06 14:16:30;;;;;;;0.85;0.80;;;;;;;;;;5074688;28;20220;-87
2021/08/06 14:18:57;;;;;;;1.00;0.90;;;;;;;;;;5074796;28;20181;-88
2021/08/06 14:21:25;;;;;;;0.70;0.70;;;;;;;;;;5074750;28;20197;-88
2021/08/06 14:23:53;;;;;;;2.15;0.90;;;;;;;;;;5074742;28;20265;-88
2021/08/06 14:26:22;;;;;;;0.50;0.50;;;;;;;;;;5074578;28;20223;-87
2021/08/06 14:28:51;;;;;;;0.80;0.80;;;;;;;;;;5074427;28;20264;-87
2021/08/06 14:31:19;;;;;;;0.80;0.68;;;;;;;;;;5074554;28;20201;-87
2021/08/06 14:33:47;;;;;;;0.88;0.88;;;;;;;;;;5074682;28;20186;-86
2021/08/06 14:36:15;;;;;;;0.80;0.80;;;;;;;;;;5073645;28;20220;-87
2021/08/06 14:38:44;;;;;;;0.70;0.70;;;;;;;;;;5074110;28;20288;-86
2021/08/06 14:41:11;;;;;;;0.70;0.70;;;;;;;;;;5074229;28;20205;-86
2021/08/06 14:43:39;;;;;;;0.90;0.90;;;;;;;;;;5073895;28;20654;-87
2021/08/06 14:46:06;;;;;;;0.90;0.90;;;;;;;;;;5074484;28;20312;-87
2021/08/06 14:48:37;;;;;;;0.82;0.82;;;;;;;;;;5073687;28;20262;-86
2021/08/06 14:51:05;;;;;;;0.60;0.60;;;;;;;;;;5073693;28;20251;-86
2021/08/06 14:53:34;;;;;;;0.68;0.68;;;;;;;;;;5073203;28;20635;-87
2021/08/06 14:56:03;;;;;;;0.70;0.70;;;;;;;;;;5074051;28;20221;-88
2021/08/06 14:58:31;;;;;;;0.63;0.63;;;;;;;;;;5074226;28;20185;-88
2021/08/06 15:01:00;;;;;;;0.60;0.60;;;;;;;;;;5068583;28;20578;-87
2021/08/06 15:03:29;;;;;;;0.93;0.93;;;;;;;;;;5054339;28;20213;-88